sensor_id;sensor_type;location;lat;lon;timestamp;P1;durP1;ratioP1;P2;durP2;ratioP2
64816;SDS011;69411;45.656;11.740;2023-10-13T00:00:38;62.35;;;31.23;;
64816;SDS011;69411;45.656;11.740;2023-10-13T00:03:10;68.18;;;33.67;;
64816;SDS011;69411;45.656;11.740;2023-10-13T00:05:44;68.95;;;33.00;;
64816;SDS011;69411;45.656;11.740;2023-10-13T00:08:12;61.80;;;33.83;;
64816;SDS011;69411;45.656;11.740;2023-10-13T00:10:41;62.70;;;34.00;;
64816;SDS011;69411;45.656;11.740;2023-10-13T00:13:10;66.00;;;35.22;;
64816;SDS011;69411;45.656;11.740;2023-10-13T00:15:44;64.43;;;35.30;;
64816;SDS011;69411;45.656;11.740;2023-10-13T00:18:27;62.72;;;34.65;;
64816;SDS011;69411;45.656;11.740;2023-10-13T00:21:08;66.97;;;33.00;;
64816;SDS011;69411;45.656;11.740;2023-10-13T00:23:38;58.42;;;33.15;;
64816;SDS011;69411;45.656;11.740;2023-10-13T00:26:30;69.68;;;34.80;;
64816;SDS011;69411;45.656;11.740;2023-10-13T00:29:05;60.10;;;33.00;;
64816;SDS011;69411;45.656;11.740;2023-10-13T00:31:40;60.35;;;35.17;;
64816;SDS011;69411;45.656;11.740;2023-10-13T00:34:10;66.70;;;35.60;;
64816;SDS011;69411;45.656;11.740;2023-10-13T00:36:37;69.28;;;35.85;;
64816;SDS011;69411;45.656;11.740;2023-10-13T00:39:26;73.57;;;36.67;;
64816;SDS011;69411;45.656;11.740;2023-10-13T00:41:54;77.18;;;36.83;;
64816;SDS011;69411;45.656;11.740;2023-10-13T00:44:31;71.68;;;34.80;;
64816;SDS011;69411;45.656;11.740;2023-10-13T00:47:07;67.35;;;35.25;;
64816;SDS011;69411;45.656;11.740;2023-10-13T00:49:35;71.32;;;36.97;;
64816;SDS011;69411;45.656;11.740;2023-10-13T00:52:05;65.93;;;35.17;;
64816;SDS011;69411;45.656;11.740;2023-10-13T00:54:36;65.35;;;35.75;;
64816;SDS011;69411;45.656;11.740;2023-10-13T00:57:04;83.65;;;44.63;;
64816;SDS011;69411;45.656;11.740;2023-10-13T00:59:37;74.03;;;38.33;;
64816;SDS011;69411;45.656;11.740;2023-10-13T01:02:03;69.03;;;38.55;;
64816;SDS011;69411;45.656;11.740;2023-10-13T01:05:07;68.00;;;36.05;;
64816;SDS011;69411;45.656;11.740;2023-10-13T01:07:35;66.38;;;36.85;;
64816;SDS011;69411;45.656;11.740;2023-10-13T01:10:08;68.22;;;38.15;;
64816;SDS011;69411;45.656;11.740;2023-10-13T01:12:39;68.05;;;37.13;;
64816;SDS011;69411;45.656;11.740;2023-10-13T01:15:10;73.60;;;39.15;;
64816;SDS011;69411;45.656;11.740;2023-10-13T01:17:39;69.07;;;37.03;;
64816;SDS011;69411;45.656;11.740;2023-10-13T01:20:05;70.15;;;36.38;;
64816;SDS011;69411;45.656;11.740;2023-10-13T01:22:33;69.15;;;38.95;;
64816;SDS011;69411;45.656;11.740;2023-10-13T01:25:01;72.93;;;37.13;;
64816;SDS011;69411;45.656;11.740;2023-10-13T01:27:36;69.55;;;37.08;;
64816;SDS011;69411;45.656;11.740;2023-10-13T01:30:05;70.93;;;38.60;;
64816;SDS011;69411;45.656;11.740;2023-10-13T01:32:35;72.30;;;38.00;;
64816;SDS011;69411;45.656;11.740;2023-10-13T01:35:11;69.70;;;37.45;;
64816;SDS011;69411;45.656;11.740;2023-10-13T01:37:43;71.57;;;38.17;;
64816;SDS011;69411;45.656;11.740;2023-10-13T01:40:10;79.18;;;39.25;;
64816;SDS011;69411;45.656;11.740;2023-10-13T01:42:38;71.13;;;37.42;;
64816;SDS011;69411;45.656;11.740;2023-10-13T01:45:04;70.47;;;38.22;;
64816;SDS011;69411;45.656;11.740;2023-10-13T01:47:35;69.32;;;37.42;;
64816;SDS011;69411;45.656;11.740;2023-10-13T01:50:01;72.70;;;39.05;;
64816;SDS011;69411;45.656;11.740;2023-10-13T01:52:39;72.32;;;38.38;;
64816;SDS011;69411;45.656;11.740;2023-10-13T01:55:11;73.75;;;39.85;;
64816;SDS011;69411;45.656;11.740;2023-10-13T01:57:41;75.47;;;39.67;;
64816;SDS011;69411;45.656;11.740;2023-10-13T02:00:12;76.68;;;38.53;;
64816;SDS011;69411;45.656;11.740;2023-10-13T02:02:47;71.00;;;38.72;;
64816;SDS011;69411;45.656;11.740;2023-10-13T02:05:15;69.28;;;38.08;;
64816;SDS011;69411;45.656;11.740;2023-10-13T02:07:42;72.47;;;39.55;;
64816;SDS011;69411;45.656;11.740;2023-10-13T02:10:12;76.65;;;39.78;;
64816;SDS011;69411;45.656;11.740;2023-10-13T02:12:38;68.38;;;38.03;;
64816;SDS011;69411;45.656;11.740;2023-10-13T02:15:10;73.72;;;39.45;;
64816;SDS011;69411;45.656;11.740;2023-10-13T02:17:39;74.32;;;39.97;;
64816;SDS011;69411;45.656;11.740;2023-10-13T02:20:08;63.92;;;36.95;;
64816;SDS011;69411;45.656;11.740;2023-10-13T02:22:42;71.63;;;38.67;;
64816;SDS011;69411;45.656;11.740;2023-10-13T02:25:18;68.75;;;37.78;;
64816;SDS011;69411;45.656;11.740;2023-10-13T02:28:03;67.03;;;37.83;;
64816;SDS011;69411;45.656;11.740;2023-10-13T02:30:39;69.63;;;38.42;;
64816;SDS011;69411;45.656;11.740;2023-10-13T02:33:14;70.65;;;39.00;;
64816;SDS011;69411;45.656;11.740;2023-10-13T02:35:45;78.05;;;38.65;;
64816;SDS011;69411;45.656;11.740;2023-10-13T02:38:24;73.80;;;39.25;;
64816;SDS011;69411;45.656;11.740;2023-10-13T02:41:15;66.50;;;37.42;;
64816;SDS011;69411;45.656;11.740;2023-10-13T02:43:57;75.00;;;38.17;;
64816;SDS011;69411;45.656;11.740;2023-10-13T02:46:23;69.57;;;36.83;;
64816;SDS011;69411;45.656;11.740;2023-10-13T02:48:54;70.47;;;38.67;;
64816;SDS011;69411;45.656;11.740;2023-10-13T02:51:22;69.35;;;35.97;;
64816;SDS011;69411;45.656;11.740;2023-10-13T02:54:00;70.10;;;39.03;;
64816;SDS011;69411;45.656;11.740;2023-10-13T02:56:42;81.22;;;41.22;;
64816;SDS011;69411;45.656;11.740;2023-10-13T02:59:34;71.22;;;38.17;;
64816;SDS011;69411;45.656;11.740;2023-10-13T03:02:04;78.55;;;40.72;;
64816;SDS011;69411;45.656;11.740;2023-10-13T03:04:42;86.78;;;43.75;;
64816;SDS011;69411;45.656;11.740;2023-10-13T03:07:25;86.32;;;42.40;;
64816;SDS011;69411;45.656;11.740;2023-10-13T03:09:55;83.07;;;44.30;;
64816;SDS011;69411;45.656;11.740;2023-10-13T03:12:35;71.55;;;38.03;;
64816;SDS011;69411;45.656;11.740;2023-10-13T03:15:06;73.10;;;40.38;;
64816;SDS011;69411;45.656;11.740;2023-10-13T03:17:43;71.13;;;36.67;;
64816;SDS011;69411;45.656;11.740;2023-10-13T03:20:12;73.57;;;39.72;;
64816;SDS011;69411;45.656;11.740;2023-10-13T03:22:54;77.25;;;38.53;;
64816;SDS011;69411;45.656;11.740;2023-10-13T03:25:20;81.20;;;42.55;;
64816;SDS011;69411;45.656;11.740;2023-10-13T03:27:58;80.32;;;41.40;;
64816;SDS011;69411;45.656;11.740;2023-10-13T03:30:24;71.57;;;40.03;;
64816;SDS011;69411;45.656;11.740;2023-10-13T03:33:03;76.82;;;39.78;;
64816;SDS011;69411;45.656;11.740;2023-10-13T03:35:37;72.55;;;38.38;;
64816;SDS011;69411;45.656;11.740;2023-10-13T03:38:05;77.28;;;40.65;;
64816;SDS011;69411;45.656;11.740;2023-10-13T03:40:42;76.18;;;38.45;;
64816;SDS011;69411;45.656;11.740;2023-10-13T03:43:29;74.53;;;38.47;;
64816;SDS011;69411;45.656;11.740;2023-10-13T03:45:56;77.78;;;39.55;;
64816;SDS011;69411;45.656;11.740;2023-10-13T03:48:26;71.88;;;39.72;;
64816;SDS011;69411;45.656;11.740;2023-10-13T03:50:56;80.35;;;41.08;;
64816;SDS011;69411;45.656;11.740;2023-10-13T03:53:34;76.05;;;40.40;;
64816;SDS011;69411;45.656;11.740;2023-10-13T03:56:03;73.68;;;38.63;;
64816;SDS011;69411;45.656;11.740;2023-10-13T03:58:54;68.15;;;37.25;;
64816;SDS011;69411;45.656;11.740;2023-10-13T04:01:47;64.72;;;36.63;;
64816;SDS011;69411;45.656;11.740;2023-10-13T04:04:19;69.60;;;38.55;;
64816;SDS011;69411;45.656;11.740;2023-10-13T04:07:00;70.77;;;38.47;;
64816;SDS011;69411;45.656;11.740;2023-10-13T04:09:32;73.45;;;40.63;;
64816;SDS011;69411;45.656;11.740;2023-10-13T04:12:05;71.03;;;38.35;;
64816;SDS011;69411;45.656;11.740;2023-10-13T04:14:42;83.07;;;40.40;;
64816;SDS011;69411;45.656;11.740;2023-10-13T04:17:38;73.38;;;36.42;;
64816;SDS011;69411;45.656;11.740;2023-10-13T04:20:11;80.55;;;40.47;;
64816;SDS011;69411;45.656;11.740;2023-10-13T04:22:37;74.10;;;39.50;;
64816;SDS011;69411;45.656;11.740;2023-10-13T04:25:18;75.43;;;39.03;;
64816;SDS011;69411;45.656;11.740;2023-10-13T04:28:01;67.82;;;37.50;;
64816;SDS011;69411;45.656;11.740;2023-10-13T04:33:32;68.10;;;37.22;;
64816;SDS011;69411;45.656;11.740;2023-10-13T04:36:11;66.47;;;37.85;;
64816;SDS011;69411;45.656;11.740;2023-10-13T04:38:58;72.80;;;37.97;;
64816;SDS011;69411;45.656;11.740;2023-10-13T04:41:29;68.78;;;38.95;;
64816;SDS011;69411;45.656;11.740;2023-10-13T04:44:18;65.72;;;35.40;;
64816;SDS011;69411;45.656;11.740;2023-10-13T04:47:02;76.95;;;40.72;;
64816;SDS011;69411;45.656;11.740;2023-10-13T04:49:29;70.05;;;36.85;;
64816;SDS011;69411;45.656;11.740;2023-10-13T04:51:59;82.82;;;43.00;;
64816;SDS011;69411;45.656;11.740;2023-10-13T04:54:37;87.97;;;45.95;;
64816;SDS011;69411;45.656;11.740;2023-10-13T04:57:14;85.60;;;45.03;;
64816;SDS011;69411;45.656;11.740;2023-10-13T05:00:16;77.63;;;42.15;;
64816;SDS011;69411;45.656;11.740;2023-10-13T05:02:43;92.88;;;47.05;;
64816;SDS011;69411;45.656;11.740;2023-10-13T05:05:28;82.65;;;43.58;;
64816;SDS011;69411;45.656;11.740;2023-10-13T05:08:11;73.57;;;39.67;;
64816;SDS011;69411;45.656;11.740;2023-10-13T05:11:02;68.50;;;38.20;;
64816;SDS011;69411;45.656;11.740;2023-10-13T05:13:58;74.78;;;38.67;;
64816;SDS011;69411;45.656;11.740;2023-10-13T05:16:43;75.30;;;40.15;;
64816;SDS011;69411;45.656;11.740;2023-10-13T05:19:27;84.15;;;42.25;;
64816;SDS011;69411;45.656;11.740;2023-10-13T05:22:12;83.30;;;43.55;;
64816;SDS011;69411;45.656;11.740;2023-10-13T05:24:57;80.53;;;41.90;;
64816;SDS011;69411;45.656;11.740;2023-10-13T05:27:41;83.55;;;44.13;;
64816;SDS011;69411;45.656;11.740;2023-10-13T05:30:26;87.95;;;45.80;;
64816;SDS011;69411;45.656;11.740;2023-10-13T05:33:10;89.20;;;46.38;;
64816;SDS011;69411;45.656;11.740;2023-10-13T05:35:54;77.97;;;40.85;;
64816;SDS011;69411;45.656;11.740;2023-10-13T05:38:38;81.25;;;42.97;;
64816;SDS011;69411;45.656;11.740;2023-10-13T05:41:23;72.55;;;37.38;;
64816;SDS011;69411;45.656;11.740;2023-10-13T05:44:11;92.15;;;43.75;;
64816;SDS011;69411;45.656;11.740;2023-10-13T05:46:56;89.28;;;45.63;;
64816;SDS011;69411;45.656;11.740;2023-10-13T05:49:40;80.28;;;38.78;;
64816;SDS011;69411;45.656;11.740;2023-10-13T05:52:20;81.75;;;41.80;;
64816;SDS011;69411;45.656;11.740;2023-10-13T05:55:04;79.53;;;40.30;;
64816;SDS011;69411;45.656;11.740;2023-10-13T05:57:49;83.43;;;43.72;;
64816;SDS011;69411;45.656;11.740;2023-10-13T06:00:37;73.63;;;38.58;;
64816;SDS011;69411;45.656;11.740;2023-10-13T06:03:23;68.70;;;36.50;;
64816;SDS011;69411;45.656;11.740;2023-10-13T06:06:07;79.30;;;40.03;;
64816;SDS011;69411;45.656;11.740;2023-10-13T06:08:52;75.78;;;38.08;;
64816;SDS011;69411;45.656;11.740;2023-10-13T06:11:36;71.28;;;36.08;;
64816;SDS011;69411;45.656;11.740;2023-10-13T06:14:21;79.28;;;40.53;;
64816;SDS011;69411;45.656;11.740;2023-10-13T06:17:07;76.50;;;39.72;;
64816;SDS011;69411;45.656;11.740;2023-10-13T06:19:52;81.72;;;40.55;;
64816;SDS011;69411;45.656;11.740;2023-10-13T06:22:36;82.13;;;42.45;;
64816;SDS011;69411;45.656;11.740;2023-10-13T06:25:20;75.18;;;37.95;;
64816;SDS011;69411;45.656;11.740;2023-10-13T06:28:04;75.35;;;37.30;;
64816;SDS011;69411;45.656;11.740;2023-10-13T06:30:58;79.88;;;39.35;;
64816;SDS011;69411;45.656;11.740;2023-10-13T06:33:26;83.35;;;39.50;;
64816;SDS011;69411;45.656;11.740;2023-10-13T06:36:02;81.60;;;40.92;;
64816;SDS011;69411;45.656;11.740;2023-10-13T06:38:31;83.22;;;39.42;;
64816;SDS011;69411;45.656;11.740;2023-10-13T06:41:05;75.00;;;36.88;;
64816;SDS011;69411;45.656;11.740;2023-10-13T06:43:32;78.38;;;39.60;;
64816;SDS011;69411;45.656;11.740;2023-10-13T06:46:07;72.72;;;36.55;;
64816;SDS011;69411;45.656;11.740;2023-10-13T06:48:42;70.30;;;36.17;;
64816;SDS011;69411;45.656;11.740;2023-10-13T06:51:09;66.95;;;35.22;;
64816;SDS011;69411;45.656;11.740;2023-10-13T06:53:46;82.97;;;40.60;;
64816;SDS011;69411;45.656;11.740;2023-10-13T06:56:16;66.55;;;32.15;;
64816;SDS011;69411;45.656;11.740;2023-10-13T06:58:56;67.22;;;34.03;;
64816;SDS011;69411;45.656;11.740;2023-10-13T07:01:35;78.35;;;39.15;;
64816;SDS011;69411;45.656;11.740;2023-10-13T07:04:07;71.82;;;35.75;;
64816;SDS011;69411;45.656;11.740;2023-10-13T07:06:41;84.35;;;40.45;;
64816;SDS011;69411;45.656;11.740;2023-10-13T07:09:16;73.22;;;36.72;;
64816;SDS011;69411;45.656;11.740;2023-10-13T07:12:01;71.85;;;33.97;;
64816;SDS011;69411;45.656;11.740;2023-10-13T07:14:47;68.38;;;34.63;;
64816;SDS011;69411;45.656;11.740;2023-10-13T07:17:16;67.78;;;34.95;;
64816;SDS011;69411;45.656;11.740;2023-10-13T07:19:52;58.08;;;29.98;;
64816;SDS011;69411;45.656;11.740;2023-10-13T07:22:22;61.10;;;30.13;;
64816;SDS011;69411;45.656;11.740;2023-10-13T07:24:49;58.13;;;30.30;;
64816;SDS011;69411;45.656;11.740;2023-10-13T07:27:21;55.42;;;28.83;;
64816;SDS011;69411;45.656;11.740;2023-10-13T07:29:54;60.53;;;30.48;;
64816;SDS011;69411;45.656;11.740;2023-10-13T07:32:44;60.95;;;30.95;;
64816;SDS011;69411;45.656;11.740;2023-10-13T07:35:14;68.45;;;34.20;;
64816;SDS011;69411;45.656;11.740;2023-10-13T07:37:45;59.88;;;31.77;;
64816;SDS011;69411;45.656;11.740;2023-10-13T07:40:25;63.03;;;34.15;;
64816;SDS011;69411;45.656;11.740;2023-10-13T07:42:50;62.63;;;32.92;;
64816;SDS011;69411;45.656;11.740;2023-10-13T07:45:17;61.22;;;31.70;;
64816;SDS011;69411;45.656;11.740;2023-10-13T07:47:47;61.40;;;33.20;;
64816;SDS011;69411;45.656;11.740;2023-10-13T07:50:16;66.97;;;33.80;;
64816;SDS011;69411;45.656;11.740;2023-10-13T07:52:51;57.33;;;32.33;;
64816;SDS011;69411;45.656;11.740;2023-10-13T07:55:25;66.75;;;34.53;;
64816;SDS011;69411;45.656;11.740;2023-10-13T07:57:52;65.00;;;35.75;;
64816;SDS011;69411;45.656;11.740;2023-10-13T08:00:24;69.78;;;34.33;;
64816;SDS011;69411;45.656;11.740;2023-10-13T08:03:20;66.38;;;32.10;;
64816;SDS011;69411;45.656;11.740;2023-10-13T08:06:05;59.70;;;32.05;;
64816;SDS011;69411;45.656;11.740;2023-10-13T08:08:32;60.67;;;31.02;;
64816;SDS011;69411;45.656;11.740;2023-10-13T08:11:05;56.45;;;31.27;;
64816;SDS011;69411;45.656;11.740;2023-10-13T08:14:10;64.22;;;33.03;;
64816;SDS011;69411;45.656;11.740;2023-10-13T08:16:37;64.85;;;32.83;;
64816;SDS011;69411;45.656;11.740;2023-10-13T08:19:14;67.38;;;33.40;;
64816;SDS011;69411;45.656;11.740;2023-10-13T08:21:43;73.70;;;36.67;;
64816;SDS011;69411;45.656;11.740;2023-10-13T08:24:17;63.83;;;34.08;;
64816;SDS011;69411;45.656;11.740;2023-10-13T08:27:02;69.57;;;33.75;;
64816;SDS011;69411;45.656;11.740;2023-10-13T08:29:28;65.18;;;34.97;;
64816;SDS011;69411;45.656;11.740;2023-10-13T08:31:54;64.45;;;32.00;;
64816;SDS011;69411;45.656;11.740;2023-10-13T08:34:33;58.75;;;31.80;;
64816;SDS011;69411;45.656;11.740;2023-10-13T08:37:24;62.35;;;32.88;;
64816;SDS011;69411;45.656;11.740;2023-10-13T08:39:55;73.47;;;36.42;;
64816;SDS011;69411;45.656;11.740;2023-10-13T08:42:31;70.28;;;34.85;;
64816;SDS011;69411;45.656;11.740;2023-10-13T08:45:22;70.40;;;36.15;;
64816;SDS011;69411;45.656;11.740;2023-10-13T08:47:49;67.78;;;34.17;;
64816;SDS011;69411;45.656;11.740;2023-10-13T08:50:49;64.43;;;32.10;;
64816;SDS011;69411;45.656;11.740;2023-10-13T08:53:20;59.50;;;30.50;;
64816;SDS011;69411;45.656;11.740;2023-10-13T08:55:59;56.08;;;30.70;;
64816;SDS011;69411;45.656;11.740;2023-10-13T08:58:40;60.35;;;30.33;;
64816;SDS011;69411;45.656;11.740;2023-10-13T09:01:23;56.97;;;30.25;;
64816;SDS011;69411;45.656;11.740;2023-10-13T09:03:59;55.55;;;29.35;;
64816;SDS011;69411;45.656;11.740;2023-10-13T09:06:49;52.80;;;28.88;;
64816;SDS011;69411;45.656;11.740;2023-10-13T09:09:31;56.78;;;29.02;;
64816;SDS011;69411;45.656;11.740;2023-10-13T09:12:12;57.58;;;29.90;;
64816;SDS011;69411;45.656;11.740;2023-10-13T09:14:43;61.55;;;33.85;;
64816;SDS011;69411;45.656;11.740;2023-10-13T09:17:22;59.63;;;31.33;;
64816;SDS011;69411;45.656;11.740;2023-10-13T09:20:01;58.47;;;30.85;;
64816;SDS011;69411;45.656;11.740;2023-10-13T09:22:52;67.38;;;34.00;;
64816;SDS011;69411;45.656;11.740;2023-10-13T09:25:34;72.28;;;35.60;;
64816;SDS011;69411;45.656;11.740;2023-10-13T09:28:12;61.15;;;31.30;;
64816;SDS011;69411;45.656;11.740;2023-10-13T09:30:50;64.88;;;32.70;;
64816;SDS011;69411;45.656;11.740;2023-10-13T09:33:22;61.65;;;33.33;;
64816;SDS011;69411;45.656;11.740;2023-10-13T09:35:58;57.05;;;31.73;;
64816;SDS011;69411;45.656;11.740;2023-10-13T09:38:27;61.15;;;32.22;;
64816;SDS011;69411;45.656;11.740;2023-10-13T09:40:54;60.28;;;31.10;;
64816;SDS011;69411;45.656;11.740;2023-10-13T09:43:26;58.75;;;29.88;;
64816;SDS011;69411;45.656;11.740;2023-10-13T09:45:59;60.13;;;32.27;;
64816;SDS011;69411;45.656;11.740;2023-10-13T09:48:45;67.93;;;34.05;;
64816;SDS011;69411;45.656;11.740;2023-10-13T09:51:18;60.13;;;30.40;;
64816;SDS011;69411;45.656;11.740;2023-10-13T09:53:56;60.22;;;31.10;;
64816;SDS011;69411;45.656;11.740;2023-10-13T09:56:35;66.47;;;33.90;;
64816;SDS011;69411;45.656;11.740;2023-10-13T09:59:33;72.93;;;35.63;;
64816;SDS011;69411;45.656;11.740;2023-10-13T10:02:06;69.15;;;34.03;;
64816;SDS011;69411;45.656;11.740;2023-10-13T10:04:35;59.83;;;29.80;;
64816;SDS011;69411;45.656;11.740;2023-10-13T10:07:25;62.65;;;31.38;;
64816;SDS011;69411;45.656;11.740;2023-10-13T10:09:56;55.08;;;29.80;;
64816;SDS011;69411;45.656;11.740;2023-10-13T10:18:20;62.35;;;33.35;;
64816;SDS011;69411;45.656;11.740;2023-10-13T10:21:04;53.85;;;29.20;;
64816;SDS011;69411;45.656;11.740;2023-10-13T10:23:35;68.00;;;35.10;;
64816;SDS011;69411;45.656;11.740;2023-10-13T10:26:15;68.43;;;34.42;;
64816;SDS011;69411;45.656;11.740;2023-10-13T10:28:50;69.03;;;35.75;;
64816;SDS011;69411;45.656;11.740;2023-10-13T10:31:16;59.05;;;31.08;;
64816;SDS011;69411;45.656;11.740;2023-10-13T10:33:47;52.67;;;28.90;;
64816;SDS011;69411;45.656;11.740;2023-10-13T10:36:16;54.05;;;29.35;;
64816;SDS011;69411;45.656;11.740;2023-10-13T10:38:53;55.88;;;29.90;;
64816;SDS011;69411;45.656;11.740;2023-10-13T10:41:28;63.03;;;31.65;;
64816;SDS011;69411;45.656;11.740;2023-10-13T10:44:18;59.03;;;29.20;;
64816;SDS011;69411;45.656;11.740;2023-10-13T10:47:07;74.10;;;33.78;;
64816;SDS011;69411;45.656;11.740;2023-10-13T10:49:37;62.58;;;31.75;;
64816;SDS011;69411;45.656;11.740;2023-10-13T10:52:04;66.00;;;33.13;;
64816;SDS011;69411;45.656;11.740;2023-10-13T10:54:39;73.90;;;37.92;;
64816;SDS011;69411;45.656;11.740;2023-10-13T10:57:13;69.10;;;35.15;;
64816;SDS011;69411;45.656;11.740;2023-10-13T11:00:00;69.32;;;35.70;;
64816;SDS011;69411;45.656;11.740;2023-10-13T11:02:39;58.78;;;31.52;;
64816;SDS011;69411;45.656;11.740;2023-10-13T11:05:06;71.07;;;36.03;;
64816;SDS011;69411;45.656;11.740;2023-10-13T11:07:34;58.50;;;30.58;;
64816;SDS011;69411;45.656;11.740;2023-10-13T11:10:10;68.93;;;36.20;;
64816;SDS011;69411;45.656;11.740;2023-10-13T11:12:53;70.07;;;34.40;;
64816;SDS011;69411;45.656;11.740;2023-10-13T11:15:20;69.30;;;35.08;;
64816;SDS011;69411;45.656;11.740;2023-10-13T11:17:59;66.28;;;35.15;;
64816;SDS011;69411;45.656;11.740;2023-10-13T11:20:26;67.78;;;35.63;;
64816;SDS011;69411;45.656;11.740;2023-10-13T11:23:16;62.63;;;32.72;;
64816;SDS011;69411;45.656;11.740;2023-10-13T11:25:55;70.75;;;36.92;;
64816;SDS011;69411;45.656;11.740;2023-10-13T11:28:25;72.38;;;38.03;;
64816;SDS011;69411;45.656;11.740;2023-10-13T11:30:57;67.03;;;34.78;;
64816;SDS011;69411;45.656;11.740;2023-10-13T11:33:25;66.90;;;35.85;;
64816;SDS011;69411;45.656;11.740;2023-10-13T11:35:55;67.68;;;37.35;;
64816;SDS011;69411;45.656;11.740;2023-10-13T11:38:34;65.43;;;36.83;;
64816;SDS011;69411;45.656;11.740;2023-10-13T11:41:06;66.70;;;35.67;;
64816;SDS011;69411;45.656;11.740;2023-10-13T11:43:32;64.32;;;33.55;;
64816;SDS011;69411;45.656;11.740;2023-10-13T11:48:43;55.83;;;31.15;;
64816;SDS011;69411;45.656;11.740;2023-10-13T11:53:37;63.42;;;32.60;;
64816;SDS011;69411;45.656;11.740;2023-10-13T11:56:05;58.15;;;31.50;;
64816;SDS011;69411;45.656;11.740;2023-10-13T11:58:38;60.35;;;32.85;;
64816;SDS011;69411;45.656;11.740;2023-10-13T12:01:05;54.45;;;31.27;;
64816;SDS011;69411;45.656;11.740;2023-10-13T12:03:43;58.20;;;32.03;;
64816;SDS011;69411;45.656;11.740;2023-10-13T12:06:34;58.05;;;30.95;;
64816;SDS011;69411;45.656;11.740;2023-10-13T12:09:02;59.28;;;31.75;;
64816;SDS011;69411;45.656;11.740;2023-10-13T12:11:47;60.85;;;33.65;;
64816;SDS011;69411;45.656;11.740;2023-10-13T12:14:16;61.67;;;34.93;;
64816;SDS011;69411;45.656;11.740;2023-10-13T12:16:46;69.78;;;37.72;;
64816;SDS011;69411;45.656;11.740;2023-10-13T12:19:17;66.03;;;36.60;;
64816;SDS011;69411;45.656;11.740;2023-10-13T12:21:51;67.22;;;37.05;;
64816;SDS011;69411;45.656;11.740;2023-10-13T12:24:21;75.72;;;38.65;;
64816;SDS011;69411;45.656;11.740;2023-10-13T12:27:03;65.05;;;36.20;;
64816;SDS011;69411;45.656;11.740;2023-10-13T12:29:51;70.38;;;38.15;;
64816;SDS011;69411;45.656;11.740;2023-10-13T12:32:18;66.25;;;36.97;;
64816;SDS011;69411;45.656;11.740;2023-10-13T12:34:53;63.43;;;34.63;;
64816;SDS011;69411;45.656;11.740;2023-10-13T12:37:28;62.13;;;35.90;;
64816;SDS011;69411;45.656;11.740;2023-10-13T12:40:11;71.15;;;35.50;;
64816;SDS011;69411;45.656;11.740;2023-10-13T12:43:03;64.75;;;36.22;;
64816;SDS011;69411;45.656;11.740;2023-10-13T12:45:50;55.67;;;30.60;;
64816;SDS011;69411;45.656;11.740;2023-10-13T12:48:39;51.45;;;28.70;;
64816;SDS011;69411;45.656;11.740;2023-10-13T12:51:23;64.20;;;35.33;;
64816;SDS011;69411;45.656;11.740;2023-10-13T12:54:09;60.10;;;32.28;;
64816;SDS011;69411;45.656;11.740;2023-10-13T12:56:46;64.53;;;35.33;;
64816;SDS011;69411;45.656;11.740;2023-10-13T12:59:12;64.93;;;33.67;;
64816;SDS011;69411;45.656;11.740;2023-10-13T13:01:42;64.90;;;35.13;;
64816;SDS011;69411;45.656;11.740;2023-10-13T13:04:11;64.15;;;34.63;;
64816;SDS011;69411;45.656;11.740;2023-10-13T13:06:43;60.47;;;35.17;;
64816;SDS011;69411;45.656;11.740;2023-10-13T13:09:12;67.15;;;35.63;;
64816;SDS011;69411;45.656;11.740;2023-10-13T13:11:41;58.20;;;32.13;;
64816;SDS011;69411;45.656;11.740;2023-10-13T13:14:08;59.70;;;33.78;;
64816;SDS011;69411;45.656;11.740;2023-10-13T13:16:35;61.35;;;33.10;;
64816;SDS011;69411;45.656;11.740;2023-10-13T13:19:04;61.58;;;33.70;;
64816;SDS011;69411;45.656;11.740;2023-10-13T13:21:39;62.08;;;34.97;;
64816;SDS011;69411;45.656;11.740;2023-10-13T13:24:06;66.32;;;34.67;;
64816;SDS011;69411;45.656;11.740;2023-10-13T13:26:40;50.60;;;28.90;;
64816;SDS011;69411;45.656;11.740;2023-10-13T13:29:06;65.60;;;33.03;;
64816;SDS011;69411;45.656;11.740;2023-10-13T13:31:36;68.13;;;34.60;;
64816;SDS011;69411;45.656;11.740;2023-10-13T13:34:18;59.97;;;31.27;;
64816;SDS011;69411;45.656;11.740;2023-10-13T13:36:50;58.67;;;31.80;;
64816;SDS011;69411;45.656;11.740;2023-10-13T13:39:20;52.33;;;28.20;;
64816;SDS011;69411;45.656;11.740;2023-10-13T13:42:01;57.22;;;31.48;;
64816;SDS011;69411;45.656;11.740;2023-10-13T13:44:31;64.70;;;35.22;;
64816;SDS011;69411;45.656;11.740;2023-10-13T13:47:01;54.72;;;28.63;;
64816;SDS011;69411;45.656;11.740;2023-10-13T13:49:55;53.92;;;29.77;;
64816;SDS011;69411;45.656;11.740;2023-10-13T13:52:26;54.30;;;30.17;;
64816;SDS011;69411;45.656;11.740;2023-10-13T13:54:58;52.03;;;28.50;;
64816;SDS011;69411;45.656;11.740;2023-10-13T13:57:28;61.45;;;32.85;;
64816;SDS011;69411;45.656;11.740;2023-10-13T13:59:55;51.63;;;27.05;;
64816;SDS011;69411;45.656;11.740;2023-10-13T14:02:23;60.63;;;33.78;;
64816;SDS011;69411;45.656;11.740;2023-10-13T14:04:56;65.55;;;32.97;;
64816;SDS011;69411;45.656;11.740;2023-10-13T14:07:22;55.47;;;30.30;;
64816;SDS011;69411;45.656;11.740;2023-10-13T14:09:49;56.75;;;31.55;;
64816;SDS011;69411;45.656;11.740;2023-10-13T14:12:18;66.90;;;37.08;;
64816;SDS011;69411;45.656;11.740;2023-10-13T14:14:55;57.25;;;30.95;;
64816;SDS011;69411;45.656;11.740;2023-10-13T14:17:24;54.17;;;30.67;;
64816;SDS011;69411;45.656;11.740;2023-10-13T14:19:54;58.67;;;32.63;;
64816;SDS011;69411;45.656;11.740;2023-10-13T14:22:24;48.25;;;28.42;;
64816;SDS011;69411;45.656;11.740;2023-10-13T14:24:50;48.58;;;27.33;;
64816;SDS011;69411;45.656;11.740;2023-10-13T14:27:20;48.47;;;29.08;;
64816;SDS011;69411;45.656;11.740;2023-10-13T14:29:51;60.13;;;34.40;;
64816;SDS011;69411;45.656;11.740;2023-10-13T14:32:21;58.45;;;33.25;;
64816;SDS011;69411;45.656;11.740;2023-10-13T14:34:50;55.67;;;30.77;;
64816;SDS011;69411;45.656;11.740;2023-10-13T14:37:20;60.63;;;33.10;;
64816;SDS011;69411;45.656;11.740;2023-10-13T14:39:52;54.05;;;29.00;;
64816;SDS011;69411;45.656;11.740;2023-10-13T14:42:24;50.53;;;29.33;;
64816;SDS011;69411;45.656;11.740;2023-10-13T14:44:51;50.22;;;28.17;;
64816;SDS011;69411;45.656;11.740;2023-10-13T14:47:29;55.70;;;31.42;;
64816;SDS011;69411;45.656;11.740;2023-10-13T14:49:55;52.13;;;28.95;;
64816;SDS011;69411;45.656;11.740;2023-10-13T14:52:32;53.03;;;27.77;;
64816;SDS011;69411;45.656;11.740;2023-10-13T14:54:59;39.28;;;24.48;;
64816;SDS011;69411;45.656;11.740;2023-10-13T14:57:25;48.17;;;26.45;;
64816;SDS011;69411;45.656;11.740;2023-10-13T14:59:54;53.78;;;30.20;;
64816;SDS011;69411;45.656;11.740;2023-10-13T15:02:21;48.45;;;27.23;;
64816;SDS011;69411;45.656;11.740;2023-10-13T15:04:47;45.00;;;25.73;;
64816;SDS011;69411;45.656;11.740;2023-10-13T15:07:14;45.17;;;25.42;;
64816;SDS011;69411;45.656;11.740;2023-10-13T15:09:46;47.05;;;26.15;;